Nearby METAR Reports

 

LIBG - Grottaglie(Civ/A, Italy
Distance from station: NO 13km
Uppdaterad: 05/02/2023 11:50
Delvis molnigt
Delvis molnigt
 Vind från N
Vind: N 41 km/h, Vindby: 59 km/h
Temperatur: 5°C
Wind Chill: -1°C
Daggpunkt: -7°C
Luftfuktighet: 42%
Barometer: 1024 hPa
Clouds: Delvis molnigt
Visibility: 10 km
Cloud details: Delvis molnigt 914 m
2023/02/05 10:50 LIBG 051050Z 36022G32KT 9999 SCT030 05/M07 Q1024
LIBH - Marina Di Ginosa, Italy
Distance from station: V 33km
Uppdaterad: 05/02/2023 11:55
Light snow, Övervägande molnigt
Light snow, Övervägande molnigt
 Vind från N
Vind: N 33 km/h, Vindby: 59 km/h
Temperatur: 6°C
Wind Chill: 1°C
Daggpunkt: 1°C
Luftfuktighet: 71%
Barometer: 1022 hPa
Summering: Light Snow
Clouds: Övervägande molnigt
Visibility: 10 km
Cloud details: Övervägande molnigt 610 m
2023/02/05 10:55 LIBH 051055Z 36018G32KT 9999 -SN BKN020 06/01 Q1022 RMK OVC OVC070 QUK 3 QUL 2 E VIS MAR 20 KM VIS MIN 9999
 
LIBV - Gioia Del Colle, Italy
Distance from station: NV 45km
Uppdaterad: 05/02/2023 11:55
Nearby showers, Övervägande molnigt
Nearby showers, Övervägande molnigt
 Vind från N
Vind: N 41 km/h, Vindby: 59 km/h
Temperatur: 3°C
Wind Chill: -4°C
Daggpunkt: -8°C
Luftfuktighet: 45%
Barometer: 1023 hPa
Summering: Nearby Showers
Clouds: Övervägande molnigt
Visibility: 5 km
Cloud details: Övervägande molnigt 1219 m
2023/02/05 10:55 LIBV 051055Z 35022G32KT 5000 VCSH BKN040 03/M08 Q1023
LIBR - Brindisi/Casale, Italy
Distance from station: ONO 62km
Uppdaterad: 05/02/2023 12:20
Delvis molnigt
Delvis molnigt
 Vind från N
Vind: N 46 km/h, Vindby: 65 km/h
Temperatur: 6°C
Wind Chill: 1°C
Daggpunkt: -6°C
Luftfuktighet: 42%
Barometer: 1022 hPa
Clouds: Delvis molnigt
Visibility: 10 km
Cloud details: Delvis molnigt 1372 m
2023/02/05 11:20 LIBR 051120Z 36025G35KT 9999 SCT045 06/M06 Q1022
 
LIBN - Lecce (it-Afb), Italy
Distance from station: OSO 79km
Uppdaterad: 05/02/2023 11:55
Övervägande molnigt
Övervägande molnigt
 Vind från NNV
Vind: NNV 39 km/h
Temperatur: 5°C
Wind Chill: -1°C
Daggpunkt: -4°C
Luftfuktighet: 53%
Barometer: 1021 hPa
Clouds: Övervägande molnigt
Visibility: 10 km
Cloud details: Delvis molnigt 610 m
Övervägande molnigt 1219 m
2023/02/05 10:55 LIBN 051055Z 34021KT 9999 SCT020 BKN040 05/M04 Q1021
LIBD - Bari/Palese Macc, Italy
Distance from station: NNV 85km
Uppdaterad: 05/02/2023 12:20
Delvis molnigt
Delvis molnigt
 Vind från N
Vind: N 28 km/h, Vindby: 52 km/h
Temperatur: 5°C
Wind Chill: 1°C
Daggpunkt: -6°C
Luftfuktighet: 45%
Barometer: 1026 hPa
Clouds: Delvis molnigt
Visibility: 10 km
Cloud details: Few Clouds 610 m
Delvis molnigt 1219 m
2023/02/05 11:20 LIBD 051120Z 36015G28KT 330V030 9999 FEW020 SCT040 05/M06 Q1026